Hokendauqua, Pennsylvania
Current Conditions -  °F | °C
As of 11:22 AM on Monday 24 Nov 2014 (Local Time) from KABE Reporting Station
Scattered Clouds Scattered Clouds  
Wind Chill: 70°   Ceiling: Unl
Heat Index: 70°   Visibility: 10mi
Dew Point: 57°   Wind: 18mph
Humidity: 64%   Direction: 210°SSW
Pressure: 29.61"   Gusts: 31mph
Location:  40.6562°N, 75.5043°W
Report Text: KABE 241622Z 21016G27KT 10SM SCT028 21/14 A2961 RMK AO2 PK WND 21027/1614
Loading
Personal Weather Stations






























Interactive Weather Map New forecast layout! Learn more

10-Day Weather Forecast

Advertisements
Track Severe Weather on mobile